sensor_id;sensor_type;location;lat;lon;timestamp;P1;durP1;ratioP1;P2;durP2;ratioP2
64033;SDS011;50280;49.864;8.638;2022-10-18T00:01:04;10.65;;;5.25;;
64033;SDS011;50280;49.864;8.638;2022-10-18T00:03:39;10.52;;;5.15;;
64033;SDS011;50280;49.864;8.638;2022-10-18T00:06:13;9.93;;;5.47;;
64033;SDS011;50280;49.864;8.638;2022-10-18T00:08:45;10.70;;;5.40;;
64033;SDS011;50280;49.864;8.638;2022-10-18T00:11:18;10.43;;;5.07;;
64033;SDS011;50280;49.864;8.638;2022-10-18T00:13:51;11.43;;;4.70;;
64033;SDS011;50280;49.864;8.638;2022-10-18T00:16:23;9.13;;;4.90;;
64033;SDS011;50280;49.864;8.638;2022-10-18T00:18:56;10.98;;;5.63;;
64033;SDS011;50280;49.864;8.638;2022-10-18T00:21:30;11.55;;;5.38;;
64033;SDS011;50280;49.864;8.638;2022-10-18T00:24:02;12.35;;;5.80;;
64033;SDS011;50280;49.864;8.638;2022-10-18T00:26:36;12.52;;;5.65;;
64033;SDS011;50280;49.864;8.638;2022-10-18T00:29:09;10.93;;;5.50;;
64033;SDS011;50280;49.864;8.638;2022-10-18T00:31:46;9.40;;;5.75;;
64033;SDS011;50280;49.864;8.638;2022-10-18T00:34:18;14.05;;;6.03;;
64033;SDS011;50280;49.864;8.638;2022-10-18T00:36:52;11.25;;;5.70;;
64033;SDS011;50280;49.864;8.638;2022-10-18T00:39:25;11.77;;;6.38;;
64033;SDS011;50280;49.864;8.638;2022-10-18T00:41:57;11.60;;;6.00;;
64033;SDS011;50280;49.864;8.638;2022-10-18T00:47:47;12.07;;;5.80;;
64033;SDS011;50280;49.864;8.638;2022-10-18T00:50:28;14.43;;;8.52;;
64033;SDS011;50280;49.864;8.638;2022-10-18T00:53:07;10.05;;;5.93;;
64033;SDS011;50280;49.864;8.638;2022-10-18T00:55:48;12.63;;;6.10;;
64033;SDS011;50280;49.864;8.638;2022-10-18T00:58:22;11.93;;;6.53;;
64033;SDS011;50280;49.864;8.638;2022-10-18T01:00:54;11.70;;;6.05;;
64033;SDS011;50280;49.864;8.638;2022-10-18T01:03:26;13.88;;;5.57;;
64033;SDS011;50280;49.864;8.638;2022-10-18T01:05:59;10.63;;;5.90;;
64033;SDS011;50280;49.864;8.638;2022-10-18T01:08:36;10.98;;;5.07;;
64033;SDS011;50280;49.864;8.638;2022-10-18T01:11:33;10.65;;;6.20;;
64033;SDS011;50280;49.864;8.638;2022-10-18T01:14:48;11.10;;;5.55;;
64033;SDS011;50280;49.864;8.638;2022-10-18T01:17:35;8.20;;;6.20;;
64033;SDS011;50280;49.864;8.638;2022-10-18T01:20:28;12.55;;;7.88;;
64033;SDS011;50280;49.864;8.638;2022-10-18T01:23:44;15.13;;;6.63;;
64033;SDS011;50280;49.864;8.638;2022-10-18T01:33:24;10.40;;;5.88;;
64033;SDS011;50280;49.864;8.638;2022-10-18T01:36:10;11.65;;;5.78;;
64033;SDS011;50280;49.864;8.638;2022-10-18T01:38:54;10.25;;;5.50;;
64033;SDS011;50280;49.864;8.638;2022-10-18T01:41:34;8.75;;;5.63;;
64033;SDS011;50280;49.864;8.638;2022-10-18T01:44:14;11.15;;;5.55;;
64033;SDS011;50280;49.864;8.638;2022-10-18T01:46:57;10.02;;;5.75;;
64033;SDS011;50280;49.864;8.638;2022-10-18T01:49:31;12.82;;;5.50;;
64033;SDS011;50280;49.864;8.638;2022-10-18T01:52:04;11.57;;;5.40;;
64033;SDS011;50280;49.864;8.638;2022-10-18T01:54:37;8.88;;;5.68;;
64033;SDS011;50280;49.864;8.638;2022-10-18T01:57:17;11.77;;;5.82;;
64033;SDS011;50280;49.864;8.638;2022-10-18T02:00:03;8.23;;;6.05;;
64033;SDS011;50280;49.864;8.638;2022-10-18T02:02:47;8.68;;;5.88;;
64033;SDS011;50280;49.864;8.638;2022-10-18T02:05:32;11.55;;;6.03;;
64033;SDS011;50280;49.864;8.638;2022-10-18T02:08:19;13.52;;;5.75;;
64033;SDS011;50280;49.864;8.638;2022-10-18T02:11:04;10.95;;;5.80;;
64033;SDS011;50280;49.864;8.638;2022-10-18T02:13:41;13.20;;;5.90;;
64033;SDS011;50280;49.864;8.638;2022-10-18T02:16:21;10.57;;;5.45;;
64033;SDS011;50280;49.864;8.638;2022-10-18T02:19:07;11.07;;;5.47;;
64033;SDS011;50280;49.864;8.638;2022-10-18T02:21:49;15.23;;;6.15;;
64033;SDS011;50280;49.864;8.638;2022-10-18T02:24:28;9.93;;;5.72;;
64033;SDS011;50280;49.864;8.638;2022-10-18T02:27:09;10.32;;;6.07;;
64033;SDS011;50280;49.864;8.638;2022-10-18T02:29:43;8.27;;;5.43;;
64033;SDS011;50280;49.864;8.638;2022-10-18T02:32:17;10.88;;;6.70;;
64033;SDS011;50280;49.864;8.638;2022-10-18T02:35:04;13.07;;;6.20;;
64033;SDS011;50280;49.864;8.638;2022-10-18T02:37:50;11.23;;;6.35;;
64033;SDS011;50280;49.864;8.638;2022-10-18T02:40:28;9.68;;;6.30;;
64033;SDS011;50280;49.864;8.638;2022-10-18T02:43:02;14.45;;;6.65;;
64033;SDS011;50280;49.864;8.638;2022-10-18T02:45:37;10.90;;;6.20;;
64033;SDS011;50280;49.864;8.638;2022-10-18T02:48:09;10.75;;;6.85;;
64033;SDS011;50280;49.864;8.638;2022-10-18T02:50:43;10.45;;;6.43;;
64033;SDS011;50280;49.864;8.638;2022-10-18T02:53:15;11.68;;;7.13;;
64033;SDS011;50280;49.864;8.638;2022-10-18T02:55:48;13.52;;;6.45;;
64033;SDS011;50280;49.864;8.638;2022-10-18T02:58:20;11.75;;;6.72;;
64033;SDS011;50280;49.864;8.638;2022-10-18T03:00:52;11.43;;;6.88;;
64033;SDS011;50280;49.864;8.638;2022-10-18T03:03:25;14.13;;;7.22;;
64033;SDS011;50280;49.864;8.638;2022-10-18T03:05:59;11.38;;;6.32;;
64033;SDS011;50280;49.864;8.638;2022-10-18T03:08:31;13.98;;;6.68;;
64033;SDS011;50280;49.864;8.638;2022-10-18T03:11:03;13.50;;;6.93;;
64033;SDS011;50280;49.864;8.638;2022-10-18T03:13:36;11.27;;;6.55;;
64033;SDS011;50280;49.864;8.638;2022-10-18T03:16:08;10.05;;;6.72;;
64033;SDS011;50280;49.864;8.638;2022-10-18T03:18:42;13.60;;;6.68;;
64033;SDS011;50280;49.864;8.638;2022-10-18T03:21:16;12.57;;;6.70;;
64033;SDS011;50280;49.864;8.638;2022-10-18T03:23:48;12.93;;;7.35;;
64033;SDS011;50280;49.864;8.638;2022-10-18T03:26:21;17.80;;;7.88;;
64033;SDS011;50280;49.864;8.638;2022-10-18T03:28:53;16.95;;;8.05;;
64033;SDS011;50280;49.864;8.638;2022-10-18T03:31:26;11.55;;;8.27;;
64033;SDS011;50280;49.864;8.638;2022-10-18T03:33:58;14.25;;;8.05;;
64033;SDS011;50280;49.864;8.638;2022-10-18T03:36:32;13.85;;;8.35;;
64033;SDS011;50280;49.864;8.638;2022-10-18T03:39:04;11.88;;;8.00;;
64033;SDS011;50280;49.864;8.638;2022-10-18T03:41:41;12.48;;;7.80;;
64033;SDS011;50280;49.864;8.638;2022-10-18T03:44:14;13.30;;;8.50;;
64033;SDS011;50280;49.864;8.638;2022-10-18T03:46:46;12.55;;;8.50;;
64033;SDS011;50280;49.864;8.638;2022-10-18T03:49:19;13.77;;;8.00;;
64033;SDS011;50280;49.864;8.638;2022-10-18T03:51:52;14.98;;;8.13;;
64033;SDS011;50280;49.864;8.638;2022-10-18T03:54:25;14.35;;;8.10;;
64033;SDS011;50280;49.864;8.638;2022-10-18T03:56:57;12.90;;;7.80;;
64033;SDS011;50280;49.864;8.638;2022-10-18T03:59:30;15.00;;;7.70;;
64033;SDS011;50280;49.864;8.638;2022-10-18T04:02:02;14.18;;;8.05;;
64033;SDS011;50280;49.864;8.638;2022-10-18T04:04:35;11.18;;;8.02;;
64033;SDS011;50280;49.864;8.638;2022-10-18T04:07:08;14.48;;;8.05;;
64033;SDS011;50280;49.864;8.638;2022-10-18T04:09:41;13.02;;;7.53;;
64033;SDS011;50280;49.864;8.638;2022-10-18T04:12:13;14.90;;;7.82;;
64033;SDS011;50280;49.864;8.638;2022-10-18T04:14:45;18.05;;;8.05;;
64033;SDS011;50280;49.864;8.638;2022-10-18T04:17:18;17.58;;;8.30;;
64033;SDS011;50280;49.864;8.638;2022-10-18T04:19:50;12.73;;;7.10;;
64033;SDS011;50280;49.864;8.638;2022-10-18T04:22:24;16.20;;;8.02;;
64033;SDS011;50280;49.864;8.638;2022-10-18T04:24:56;12.80;;;7.85;;
64033;SDS011;50280;49.864;8.638;2022-10-18T04:27:29;10.82;;;8.13;;
64033;SDS011;50280;49.864;8.638;2022-10-18T04:30:01;12.45;;;7.85;;
64033;SDS011;50280;49.864;8.638;2022-10-18T04:32:35;12.85;;;7.75;;
64033;SDS011;50280;49.864;8.638;2022-10-18T04:35:10;18.80;;;8.13;;
64033;SDS011;50280;49.864;8.638;2022-10-18T04:37:44;14.65;;;7.53;;
64033;SDS011;50280;49.864;8.638;2022-10-18T04:40:16;14.52;;;7.50;;
64033;SDS011;50280;49.864;8.638;2022-10-18T04:42:49;13.02;;;8.07;;
64033;SDS011;50280;49.864;8.638;2022-10-18T04:45:21;11.88;;;8.20;;
64033;SDS011;50280;49.864;8.638;2022-10-18T04:47:53;13.48;;;7.65;;
64033;SDS011;50280;49.864;8.638;2022-10-18T04:50:26;13.40;;;8.20;;
64033;SDS011;50280;49.864;8.638;2022-10-18T04:53:00;11.98;;;7.90;;
64033;SDS011;50280;49.864;8.638;2022-10-18T04:55:32;14.10;;;8.38;;
64033;SDS011;50280;49.864;8.638;2022-10-18T04:58:04;14.35;;;7.85;;
64033;SDS011;50280;49.864;8.638;2022-10-18T05:00:37;14.95;;;8.15;;
64033;SDS011;50280;49.864;8.638;2022-10-18T05:03:12;19.27;;;9.32;;
64033;SDS011;50280;49.864;8.638;2022-10-18T05:05:46;16.02;;;8.77;;
64033;SDS011;50280;49.864;8.638;2022-10-18T05:08:20;15.40;;;8.02;;
64033;SDS011;50280;49.864;8.638;2022-10-18T05:10:52;12.70;;;8.57;;
64033;SDS011;50280;49.864;8.638;2022-10-18T05:13:25;11.88;;;8.02;;
64033;SDS011;50280;49.864;8.638;2022-10-18T05:15:57;12.40;;;7.65;;
64033;SDS011;50280;49.864;8.638;2022-10-18T05:18:30;17.85;;;8.40;;
64033;SDS011;50280;49.864;8.638;2022-10-18T05:21:02;14.43;;;8.35;;
64033;SDS011;50280;49.864;8.638;2022-10-18T05:23:37;15.90;;;9.10;;
64033;SDS011;50280;49.864;8.638;2022-10-18T05:26:09;15.55;;;9.35;;
64033;SDS011;50280;49.864;8.638;2022-10-18T05:28:42;13.23;;;9.38;;
64033;SDS011;50280;49.864;8.638;2022-10-18T05:31:14;16.33;;;8.85;;
64033;SDS011;50280;49.864;8.638;2022-10-18T05:33:47;16.33;;;8.98;;
64033;SDS011;50280;49.864;8.638;2022-10-18T05:36:20;13.35;;;7.93;;
64033;SDS011;50280;49.864;8.638;2022-10-18T05:38:53;14.95;;;9.18;;
64033;SDS011;50280;49.864;8.638;2022-10-18T05:41:26;14.40;;;9.32;;
64033;SDS011;50280;49.864;8.638;2022-10-18T05:44:01;18.27;;;8.77;;
64033;SDS011;50280;49.864;8.638;2022-10-18T05:46:41;14.15;;;8.82;;
64033;SDS011;50280;49.864;8.638;2022-10-18T05:49:15;14.70;;;9.15;;
64033;SDS011;50280;49.864;8.638;2022-10-18T05:51:47;14.55;;;9.82;;
64033;SDS011;50280;49.864;8.638;2022-10-18T05:54:21;14.13;;;9.70;;
64033;SDS011;50280;49.864;8.638;2022-10-18T05:56:54;13.70;;;9.25;;
64033;SDS011;50280;49.864;8.638;2022-10-18T05:59:27;13.38;;;9.05;;
64033;SDS011;50280;49.864;8.638;2022-10-18T06:01:59;14.88;;;9.70;;
64033;SDS011;50280;49.864;8.638;2022-10-18T06:04:31;14.60;;;9.45;;
64033;SDS011;50280;49.864;8.638;2022-10-18T06:07:06;15.07;;;9.07;;
64033;SDS011;50280;49.864;8.638;2022-10-18T06:09:41;15.88;;;9.82;;
64033;SDS011;50280;49.864;8.638;2022-10-18T06:12:13;14.77;;;8.73;;
64033;SDS011;50280;49.864;8.638;2022-10-18T06:14:45;13.05;;;9.30;;
64033;SDS011;50280;49.864;8.638;2022-10-18T06:17:18;15.35;;;9.52;;
64033;SDS011;50280;49.864;8.638;2022-10-18T06:19:50;14.98;;;9.38;;
64033;SDS011;50280;49.864;8.638;2022-10-18T06:22:23;14.85;;;9.05;;
64033;SDS011;50280;49.864;8.638;2022-10-18T06:24:56;16.63;;;9.10;;
64033;SDS011;50280;49.864;8.638;2022-10-18T06:27:34;14.95;;;9.05;;
64033;SDS011;50280;49.864;8.638;2022-10-18T06:30:07;12.43;;;9.07;;
64033;SDS011;50280;49.864;8.638;2022-10-18T06:32:41;15.57;;;9.07;;
64033;SDS011;50280;49.864;8.638;2022-10-18T06:35:13;15.70;;;9.40;;
64033;SDS011;50280;49.864;8.638;2022-10-18T06:37:46;12.30;;;9.32;;
64033;SDS011;50280;49.864;8.638;2022-10-18T06:40:19;15.50;;;9.55;;
64033;SDS011;50280;49.864;8.638;2022-10-18T06:42:52;13.10;;;8.52;;
64033;SDS011;50280;49.864;8.638;2022-10-18T06:45:24;12.77;;;8.98;;
64033;SDS011;50280;49.864;8.638;2022-10-18T06:47:57;18.17;;;8.88;;
64033;SDS011;50280;49.864;8.638;2022-10-18T06:50:29;11.80;;;8.82;;
64033;SDS011;50280;49.864;8.638;2022-10-18T06:53:02;16.05;;;9.15;;
64033;SDS011;50280;49.864;8.638;2022-10-18T06:55:35;14.73;;;9.40;;
64033;SDS011;50280;49.864;8.638;2022-10-18T06:58:08;14.02;;;9.23;;
64033;SDS011;50280;49.864;8.638;2022-10-18T07:00:40;13.70;;;8.50;;
64033;SDS011;50280;49.864;8.638;2022-10-18T07:03:13;14.85;;;9.15;;
64033;SDS011;50280;49.864;8.638;2022-10-18T07:05:45;13.30;;;9.40;;
64033;SDS011;50280;49.864;8.638;2022-10-18T07:08:18;14.55;;;8.80;;
64033;SDS011;50280;49.864;8.638;2022-10-18T07:10:52;13.93;;;9.20;;
64033;SDS011;50280;49.864;8.638;2022-10-18T07:13:26;15.32;;;9.32;;
64033;SDS011;50280;49.864;8.638;2022-10-18T07:16:02;14.23;;;9.25;;
64033;SDS011;50280;49.864;8.638;2022-10-18T07:18:38;14.50;;;8.95;;
64033;SDS011;50280;49.864;8.638;2022-10-18T07:21:14;12.73;;;9.40;;
64033;SDS011;50280;49.864;8.638;2022-10-18T07:23:50;12.35;;;8.35;;
64033;SDS011;50280;49.864;8.638;2022-10-18T07:26:25;14.38;;;9.63;;
64033;SDS011;50280;49.864;8.638;2022-10-18T07:29:03;13.40;;;9.48;;
64033;SDS011;50280;49.864;8.638;2022-10-18T07:31:39;14.10;;;9.10;;
64033;SDS011;50280;49.864;8.638;2022-10-18T07:34:12;16.05;;;9.48;;
64033;SDS011;50280;49.864;8.638;2022-10-18T07:36:45;13.07;;;9.25;;
64033;SDS011;50280;49.864;8.638;2022-10-18T07:39:17;15.23;;;8.98;;
64033;SDS011;50280;49.864;8.638;2022-10-18T07:41:51;14.95;;;8.95;;
64033;SDS011;50280;49.864;8.638;2022-10-18T07:44:23;14.23;;;9.13;;
64033;SDS011;50280;49.864;8.638;2022-10-18T07:46:56;17.60;;;9.30;;
64033;SDS011;50280;49.864;8.638;2022-10-18T07:49:28;15.07;;;9.23;;
64033;SDS011;50280;49.864;8.638;2022-10-18T07:52:01;17.40;;;9.38;;
64033;SDS011;50280;49.864;8.638;2022-10-18T07:54:33;18.35;;;9.95;;
64033;SDS011;50280;49.864;8.638;2022-10-18T07:57:07;15.63;;;9.35;;
64033;SDS011;50280;49.864;8.638;2022-10-18T07:59:39;14.73;;;9.02;;
64033;SDS011;50280;49.864;8.638;2022-10-18T08:02:12;15.98;;;9.60;;
64033;SDS011;50280;49.864;8.638;2022-10-18T08:04:44;15.57;;;9.50;;
64033;SDS011;50280;49.864;8.638;2022-10-18T08:07:18;12.80;;;9.25;;
64033;SDS011;50280;49.864;8.638;2022-10-18T08:10:03;16.45;;;8.70;;
64033;SDS011;50280;49.864;8.638;2022-10-18T08:12:40;11.82;;;7.80;;
64033;SDS011;50280;49.864;8.638;2022-10-18T08:15:12;16.63;;;8.90;;
64033;SDS011;50280;49.864;8.638;2022-10-18T08:17:45;15.68;;;9.27;;
64033;SDS011;50280;49.864;8.638;2022-10-18T08:20:17;12.98;;;9.18;;
64033;SDS011;50280;49.864;8.638;2022-10-18T08:22:50;15.77;;;8.40;;
64033;SDS011;50280;49.864;8.638;2022-10-18T08:25:22;14.75;;;8.50;;
64033;SDS011;50280;49.864;8.638;2022-10-18T08:27:56;14.90;;;9.00;;
64033;SDS011;50280;49.864;8.638;2022-10-18T08:30:29;11.77;;;8.15;;
64033;SDS011;50280;49.864;8.638;2022-10-18T08:33:01;13.35;;;8.88;;
64033;SDS011;50280;49.864;8.638;2022-10-18T08:35:34;15.15;;;8.65;;
64033;SDS011;50280;49.864;8.638;2022-10-18T08:38:10;13.77;;;8.23;;
64033;SDS011;50280;49.864;8.638;2022-10-18T08:40:43;12.77;;;8.30;;
64033;SDS011;50280;49.864;8.638;2022-10-18T08:43:20;15.65;;;8.35;;
64033;SDS011;50280;49.864;8.638;2022-10-18T08:46:06;13.48;;;8.60;;
64033;SDS011;50280;49.864;8.638;2022-10-18T08:48:44;13.95;;;8.27;;
64033;SDS011;50280;49.864;8.638;2022-10-18T08:51:26;18.85;;;8.82;;
64033;SDS011;50280;49.864;8.638;2022-10-18T08:54:10;13.93;;;9.25;;
64033;SDS011;50280;49.864;8.638;2022-10-18T08:56:55;15.88;;;9.13;;
64033;SDS011;50280;49.864;8.638;2022-10-18T08:59:36;11.70;;;8.70;;
64033;SDS011;50280;49.864;8.638;2022-10-18T09:02:15;13.47;;;9.20;;
64033;SDS011;50280;49.864;8.638;2022-10-18T09:05:11;15.18;;;9.00;;
64033;SDS011;50280;49.864;8.638;2022-10-18T09:11:36;14.57;;;9.65;;
64033;SDS011;50280;49.864;8.638;2022-10-18T09:14:30;14.30;;;9.60;;
64033;SDS011;50280;49.864;8.638;2022-10-18T09:17:33;17.70;;;9.90;;
64033;SDS011;50280;49.864;8.638;2022-10-18T09:20:24;21.55;;;15.77;;
64033;SDS011;50280;49.864;8.638;2022-10-18T09:23:08;17.42;;;9.80;;
64033;SDS011;50280;49.864;8.638;2022-10-18T09:26:08;13.60;;;9.55;;
64033;SDS011;50280;49.864;8.638;2022-10-18T09:29:06;16.40;;;9.80;;
64033;SDS011;50280;49.864;8.638;2022-10-18T09:32:09;14.88;;;8.98;;
64033;SDS011;50280;49.864;8.638;2022-10-18T09:35:09;14.30;;;10.55;;
64033;SDS011;50280;49.864;8.638;2022-10-18T09:38:00;19.15;;;14.88;;
64033;SDS011;50280;49.864;8.638;2022-10-18T09:40:43;21.38;;;12.13;;
64033;SDS011;50280;49.864;8.638;2022-10-18T09:43:30;16.67;;;11.80;;
64033;SDS011;50280;49.864;8.638;2022-10-18T09:46:20;16.25;;;11.80;;
64033;SDS011;50280;49.864;8.638;2022-10-18T09:49:03;15.40;;;11.65;;
64033;SDS011;50280;49.864;8.638;2022-10-18T09:51:47;18.80;;;12.63;;
64033;SDS011;50280;49.864;8.638;2022-10-18T09:54:25;16.27;;;12.25;;
64033;SDS011;50280;49.864;8.638;2022-10-18T09:57:05;14.73;;;11.70;;
64033;SDS011;50280;49.864;8.638;2022-10-18T09:59:50;14.80;;;11.85;;
64033;SDS011;50280;49.864;8.638;2022-10-18T10:02:22;15.45;;;10.20;;
64033;SDS011;50280;49.864;8.638;2022-10-18T10:04:56;15.18;;;9.80;;
64033;SDS011;50280;49.864;8.638;2022-10-18T10:07:33;11.13;;;8.95;;
64033;SDS011;50280;49.864;8.638;2022-10-18T10:10:15;14.30;;;9.68;;
64033;SDS011;50280;49.864;8.638;2022-10-18T10:13:02;12.48;;;8.60;;
64033;SDS011;50280;49.864;8.638;2022-10-18T10:15:38;13.35;;;7.88;;
64033;SDS011;50280;49.864;8.638;2022-10-18T10:18:16;8.77;;;7.30;;
64033;SDS011;50280;49.864;8.638;2022-10-18T10:20:54;11.10;;;8.38;;
64033;SDS011;50280;49.864;8.638;2022-10-18T10:23:35;9.90;;;6.55;;
64033;SDS011;50280;49.864;8.638;2022-10-18T10:26:19;8.85;;;6.75;;
64033;SDS011;50280;49.864;8.638;2022-10-18T10:28:57;9.65;;;6.72;;
64033;SDS011;50280;49.864;8.638;2022-10-18T10:31:31;10.23;;;8.55;;
64033;SDS011;50280;49.864;8.638;2022-10-18T10:34:08;9.88;;;7.15;;
64033;SDS011;50280;49.864;8.638;2022-10-18T10:36:53;10.15;;;7.35;;
64033;SDS011;50280;49.864;8.638;2022-10-18T10:39:26;7.53;;;6.45;;
64033;SDS011;50280;49.864;8.638;2022-10-18T10:41:58;8.70;;;6.45;;
64033;SDS011;50280;49.864;8.638;2022-10-18T10:44:32;11.90;;;7.68;;
64033;SDS011;50280;49.864;8.638;2022-10-18T10:47:07;9.25;;;6.95;;
64033;SDS011;50280;49.864;8.638;2022-10-18T10:52:30;8.60;;;5.82;;
64033;SDS011;50280;49.864;8.638;2022-10-18T10:55:03;6.80;;;4.90;;
64033;SDS011;50280;49.864;8.638;2022-10-18T10:57:49;6.32;;;4.88;;
64033;SDS011;50280;49.864;8.638;2022-10-18T11:00:36;6.07;;;4.22;;
64033;SDS011;50280;49.864;8.638;2022-10-18T11:03:14;7.13;;;4.00;;
64033;SDS011;50280;49.864;8.638;2022-10-18T11:05:51;6.07;;;4.20;;
64033;SDS011;50280;49.864;8.638;2022-10-18T11:08:28;4.65;;;3.67;;
64033;SDS011;50280;49.864;8.638;2022-10-18T11:11:12;7.43;;;4.00;;
64033;SDS011;50280;49.864;8.638;2022-10-18T11:13:55;6.13;;;4.07;;
64033;SDS011;50280;49.864;8.638;2022-10-18T11:22:57;4.80;;;3.30;;
64033;SDS011;50280;49.864;8.638;2022-10-18T11:25:42;4.72;;;2.88;;
64033;SDS011;50280;49.864;8.638;2022-10-18T11:28:44;6.78;;;3.17;;
64033;SDS011;50280;49.864;8.638;2022-10-18T11:31:45;3.42;;;2.67;;
64033;SDS011;50280;49.864;8.638;2022-10-18T11:37:59;4.40;;;2.60;;
64033;SDS011;50280;49.864;8.638;2022-10-18T11:40:57;4.13;;;2.35;;
64033;SDS011;50280;49.864;8.638;2022-10-18T11:44:08;5.55;;;2.25;;
64033;SDS011;50280;49.864;8.638;2022-10-18T11:46:59;5.57;;;2.28;;
64033;SDS011;50280;49.864;8.638;2022-10-18T11:49:52;9.57;;;2.22;;
64033;SDS011;50280;49.864;8.638;2022-10-18T11:52:48;4.82;;;1.90;;
64033;SDS011;50280;49.864;8.638;2022-10-18T11:55:43;3.47;;;1.90;;
64033;SDS011;50280;49.864;8.638;2022-10-18T11:58:44;3.53;;;1.60;;
64033;SDS011;50280;49.864;8.638;2022-10-18T12:01:48;3.58;;;1.70;;
64033;SDS011;50280;49.864;8.638;2022-10-18T12:04:53;4.32;;;1.58;;
64033;SDS011;50280;49.864;8.638;2022-10-18T12:07:33;6.82;;;1.77;;
64033;SDS011;50280;49.864;8.638;2022-10-18T12:10:19;4.47;;;1.70;;
64033;SDS011;50280;49.864;8.638;2022-10-18T12:12:57;2.08;;;1.20;;
64033;SDS011;50280;49.864;8.638;2022-10-18T12:15:36;3.78;;;1.20;;
64033;SDS011;50280;49.864;8.638;2022-10-18T12:18:13;3.13;;;1.23;;
64033;SDS011;50280;49.864;8.638;2022-10-18T12:20:52;3.05;;;1.17;;
64033;SDS011;50280;49.864;8.638;2022-10-18T12:23:32;3.05;;;0.90;;
64033;SDS011;50280;49.864;8.638;2022-10-18T12:26:17;1.85;;;1.05;;
64033;SDS011;50280;49.864;8.638;2022-10-18T12:28:57;1.80;;;0.90;;
64033;SDS011;50280;49.864;8.638;2022-10-18T12:31:50;3.72;;;1.17;;
64033;SDS011;50280;49.864;8.638;2022-10-18T12:34:32;2.85;;;1.10;;
64033;SDS011;50280;49.864;8.638;2022-10-18T12:37:23;4.43;;;1.00;;
64033;SDS011;50280;49.864;8.638;2022-10-18T12:40:24;1.52;;;0.80;;
64033;SDS011;50280;49.864;8.638;2022-10-18T12:43:14;3.75;;;0.68;;
64033;SDS011;50280;49.864;8.638;2022-10-18T12:45:56;2.50;;;0.80;;
64033;SDS011;50280;49.864;8.638;2022-10-18T12:48:32;1.33;;;0.73;;
64033;SDS011;50280;49.864;8.638;2022-10-18T12:51:11;1.75;;;0.80;;
64033;SDS011;50280;49.864;8.638;2022-10-18T12:53:48;2.03;;;0.90;;
64033;SDS011;50280;49.864;8.638;2022-10-18T12:56:41;2.85;;;0.90;;
64033;SDS011;50280;49.864;8.638;2022-10-18T13:02:28;1.38;;;0.70;;
64033;SDS011;50280;49.864;8.638;2022-10-18T13:08:31;1.27;;;0.70;;
64033;SDS011;50280;49.864;8.638;2022-10-18T13:11:29;1.48;;;0.98;;
64033;SDS011;50280;49.864;8.638;2022-10-18T13:14:09;1.90;;;1.00;;
64033;SDS011;50280;49.864;8.638;2022-10-18T13:17:19;1.63;;;1.00;;
64033;SDS011;50280;49.864;8.638;2022-10-18T13:20:11;1.58;;;0.75;;
64033;SDS011;50280;49.864;8.638;2022-10-18T13:22:59;2.97;;;0.80;;
64033;SDS011;50280;49.864;8.638;2022-10-18T13:26:00;2.92;;;1.30;;
64033;SDS011;50280;49.864;8.638;2022-10-18T13:28:53;1.58;;;0.90;;
64033;SDS011;50280;49.864;8.638;2022-10-18T13:31:45;2.55;;;0.98;;
64033;SDS011;50280;49.864;8.638;2022-10-18T13:34:31;1.77;;;0.90;;
64033;SDS011;50280;49.864;8.638;2022-10-18T13:37:17;3.33;;;1.00;;
64033;SDS011;50280;49.864;8.638;2022-10-18T13:48:45;4.75;;;3.38;;
64033;SDS011;50280;49.864;8.638;2022-10-18T13:51:29;8.52;;;5.82;;
64033;SDS011;50280;49.864;8.638;2022-10-18T13:54:35;2.45;;;1.42;;
64033;SDS011;50280;49.864;8.638;2022-10-18T13:57:40;3.95;;;0.90;;
64033;SDS011;50280;49.864;8.638;2022-10-18T14:00:38;1.90;;;1.10;;
64033;SDS011;50280;49.864;8.638;2022-10-18T14:03:49;2.90;;;1.45;;
64033;SDS011;50280;49.864;8.638;2022-10-18T14:07:06;4.03;;;1.15;;
64033;SDS011;50280;49.864;8.638;2022-10-18T14:09:43;2.25;;;1.00;;
64033;SDS011;50280;49.864;8.638;2022-10-18T14:12:25;1.60;;;0.80;;
64033;SDS011;50280;49.864;8.638;2022-10-18T14:15:09;1.67;;;0.70;;
64033;SDS011;50280;49.864;8.638;2022-10-18T14:17:52;2.00;;;0.93;;
64033;SDS011;50280;49.864;8.638;2022-10-18T14:20:35;2.80;;;1.00;;
64033;SDS011;50280;49.864;8.638;2022-10-18T14:23:15;3.30;;;1.30;;
64033;SDS011;50280;49.864;8.638;2022-10-18T14:25:55;4.03;;;1.50;;
64033;SDS011;50280;49.864;8.638;2022-10-18T14:28:38;2.50;;;1.20;;
64033;SDS011;50280;49.864;8.638;2022-10-18T14:31:12;3.47;;;1.27;;
64033;SDS011;50280;49.864;8.638;2022-10-18T14:33:51;3.08;;;1.65;;
64033;SDS011;50280;49.864;8.638;2022-10-18T14:36:28;3.95;;;1.23;;
64033;SDS011;50280;49.864;8.638;2022-10-18T14:39:16;3.45;;;1.10;;
64033;SDS011;50280;49.864;8.638;2022-10-18T14:41:55;2.60;;;1.25;;
64033;SDS011;50280;49.864;8.638;2022-10-18T14:44:30;4.63;;;1.48;;
64033;SDS011;50280;49.864;8.638;2022-10-18T14:47:10;2.17;;;1.00;;
64033;SDS011;50280;49.864;8.638;2022-10-18T14:49:50;2.85;;;1.30;;
64033;SDS011;50280;49.864;8.638;2022-10-18T14:52:25;3.80;;;1.20;;
64033;SDS011;50280;49.864;8.638;2022-10-18T14:55:05;2.50;;;1.10;;
64033;SDS011;50280;49.864;8.638;2022-10-18T14:57:51;3.10;;;1.00;;
64033;SDS011;50280;49.864;8.638;2022-10-18T15:00:24;4.10;;;1.10;;
64033;SDS011;50280;49.864;8.638;2022-10-18T15:03:10;3.55;;;1.40;;
64033;SDS011;50280;49.864;8.638;2022-10-18T15:05:52;4.20;;;1.52;;
64033;SDS011;50280;49.864;8.638;2022-10-18T15:08:28;3.28;;;1.40;;
64033;SDS011;50280;49.864;8.638;2022-10-18T15:11:10;2.45;;;1.30;;
64033;SDS011;50280;49.864;8.638;2022-10-18T15:13:47;3.28;;;1.30;;
64033;SDS011;50280;49.864;8.638;2022-10-18T15:16:27;3.08;;;1.38;;
64033;SDS011;50280;49.864;8.638;2022-10-18T15:19:03;4.18;;;1.40;;
64033;SDS011;50280;49.864;8.638;2022-10-18T15:21:52;3.40;;;1.30;;
64033;SDS011;50280;49.864;8.638;2022-10-18T15:24:29;4.95;;;1.70;;
64033;SDS011;50280;49.864;8.638;2022-10-18T15:27:12;7.28;;;4.55;;
64033;SDS011;50280;49.864;8.638;2022-10-18T15:29:54;4.82;;;2.03;;
64033;SDS011;50280;49.864;8.638;2022-10-18T15:32:28;5.25;;;2.65;;
64033;SDS011;50280;49.864;8.638;2022-10-18T15:35:05;4.25;;;2.00;;
64033;SDS011;50280;49.864;8.638;2022-10-18T15:37:47;4.05;;;2.38;;
64033;SDS011;50280;49.864;8.638;2022-10-18T15:40:36;4.03;;;2.13;;
64033;SDS011;50280;49.864;8.638;2022-10-18T15:46:27;5.10;;;2.83;;
64033;SDS011;50280;49.864;8.638;2022-10-18T15:52:31;5.55;;;1.95;;
64033;SDS011;50280;49.864;8.638;2022-10-18T15:58:20;3.08;;;1.38;;
64033;SDS011;50280;49.864;8.638;2022-10-18T16:00:58;3.85;;;1.80;;
64033;SDS011;50280;49.864;8.638;2022-10-18T16:03:33;4.13;;;1.50;;
64033;SDS011;50280;49.864;8.638;2022-10-18T16:06:08;3.72;;;1.60;;
64033;SDS011;50280;49.864;8.638;2022-10-18T16:08:44;2.55;;;1.65;;
64033;SDS011;50280;49.864;8.638;2022-10-18T16:11:19;3.40;;;1.80;;
64033;SDS011;50280;49.864;8.638;2022-10-18T16:13:55;4.57;;;1.88;;
64033;SDS011;50280;49.864;8.638;2022-10-18T16:16:29;2.60;;;1.50;;
64033;SDS011;50280;49.864;8.638;2022-10-18T16:19:02;4.57;;;1.50;;
64033;SDS011;50280;49.864;8.638;2022-10-18T16:21:35;3.13;;;1.50;;
64033;SDS011;50280;49.864;8.638;2022-10-18T16:24:09;3.83;;;1.33;;
64033;SDS011;50280;49.864;8.638;2022-10-18T16:26:42;2.90;;;1.33;;
64033;SDS011;50280;49.864;8.638;2022-10-18T16:29:15;3.53;;;1.55;;
64033;SDS011;50280;49.864;8.638;2022-10-18T16:31:53;6.35;;;1.55;;
64033;SDS011;50280;49.864;8.638;2022-10-18T16:34:26;2.90;;;1.80;;
64033;SDS011;50280;49.864;8.638;2022-10-18T16:36:58;6.10;;;1.83;;
64033;SDS011;50280;49.864;8.638;2022-10-18T16:39:31;4.75;;;2.22;;